Terminal Aerodrome Forecast
Issued by NWS

Home | Current Version | Previous Version | Text Only | Print | Product List | Glossary Off
Versions: 1 2 3 4 5 6 7 8 9 10 11 12

000
FTUS45 KGGW 162335
TAFGDV
TAF
KGDV 162335Z 1700/1724 VRB06KT P6SM SKC
     FM170900 22009KT P6SM FEW025 WS020/30030KT
     FM172100 25010KT P6SM FEW250=

USA.gov is the U.S. government's official web portal to all federal, state and local government web resources and services.